sensor_id;sensor_type;location;lat;lon;timestamp;temperature;humidity
46932;DHT22;32670;51.464;11.964;2023-07-29T00:01:59;25.70;62.80
46932;DHT22;32670;51.464;11.964;2023-07-29T00:04:24;25.70;62.70
46932;DHT22;32670;51.464;11.964;2023-07-29T00:06:50;25.70;62.80
46932;DHT22;32670;51.464;11.964;2023-07-29T00:09:15;25.80;62.80
46932;DHT22;32670;51.464;11.964;2023-07-29T00:11:41;25.70;62.80
46932;DHT22;32670;51.464;11.964;2023-07-29T00:14:06;25.70;62.70
46932;DHT22;32670;51.464;11.964;2023-07-29T00:16:32;25.70;62.80
46932;DHT22;32670;51.464;11.964;2023-07-29T00:18:57;25.80;62.80
46932;DHT22;32670;51.464;11.964;2023-07-29T00:21:23;25.80;62.70
46932;DHT22;32670;51.464;11.964;2023-07-29T00:23:48;25.70;62.60
46932;DHT22;32670;51.464;11.964;2023-07-29T00:26:14;25.70;62.70
46932;DHT22;32670;51.464;11.964;2023-07-29T00:28:39;25.80;62.70
46932;DHT22;32670;51.464;11.964;2023-07-29T00:31:05;25.70;62.70
46932;DHT22;32670;51.464;11.964;2023-07-29T00:33:31;25.70;62.70
46932;DHT22;32670;51.464;11.964;2023-07-29T00:35:56;25.70;62.70
46932;DHT22;32670;51.464;11.964;2023-07-29T00:38:22;25.70;62.60
46932;DHT22;32670;51.464;11.964;2023-07-29T00:40:47;25.80;62.80
46932;DHT22;32670;51.464;11.964;2023-07-29T00:43:13;25.70;62.80
46932;DHT22;32670;51.464;11.964;2023-07-29T00:45:39;25.80;62.80
46932;DHT22;32670;51.464;11.964;2023-07-29T00:48:05;25.70;62.80
46932;DHT22;32670;51.464;11.964;2023-07-29T00:50:31;25.70;62.70
46932;DHT22;32670;51.464;11.964;2023-07-29T00:52:57;25.70;62.70
46932;DHT22;32670;51.464;11.964;2023-07-29T00:55:23;25.70;62.70
46932;DHT22;32670;51.464;11.964;2023-07-29T00:57:50;25.70;62.80
46932;DHT22;32670;51.464;11.964;2023-07-29T01:00:17;25.70;62.80
46932;DHT22;32670;51.464;11.964;2023-07-29T01:02:43;25.70;63.40
46932;DHT22;32670;51.464;11.964;2023-07-29T01:05:12;25.70;62.80
46932;DHT22;32670;51.464;11.964;2023-07-29T01:07:49;25.70;62.90
46932;DHT22;32670;51.464;11.964;2023-07-29T01:10:39;25.70;63.10
46932;DHT22;32670;51.464;11.964;2023-07-29T01:13:18;25.70;63.00
46932;DHT22;32670;51.464;11.964;2023-07-29T01:16:09;25.70;63.00
46932;DHT22;32670;51.464;11.964;2023-07-29T01:18:39;25.70;63.00
46932;DHT22;32670;51.464;11.964;2023-07-29T01:21:09;25.70;62.90
46932;DHT22;32670;51.464;11.964;2023-07-29T01:23:36;25.70;63.00
46932;DHT22;32670;51.464;11.964;2023-07-29T01:26:03;25.70;63.00
46932;DHT22;32670;51.464;11.964;2023-07-29T01:28:29;25.70;63.10
46932;DHT22;32670;51.464;11.964;2023-07-29T01:33:35;25.70;63.10
46932;DHT22;32670;51.464;11.964;2023-07-29T01:36:07;25.70;63.00
46932;DHT22;32670;51.464;11.964;2023-07-29T01:38:38;25.70;63.10
46932;DHT22;32670;51.464;11.964;2023-07-29T01:41:07;25.70;63.10
46932;DHT22;32670;51.464;11.964;2023-07-29T01:43:33;25.70;63.10
46932;DHT22;32670;51.464;11.964;2023-07-29T01:46:00;25.70;63.20
46932;DHT22;32670;51.464;11.964;2023-07-29T01:48:26;25.70;63.70
46932;DHT22;32670;51.464;11.964;2023-07-29T01:50:53;25.70;63.20
46932;DHT22;32670;51.464;11.964;2023-07-29T01:53:18;25.80;63.20
46932;DHT22;32670;51.464;11.964;2023-07-29T01:55:44;25.70;63.10
46932;DHT22;32670;51.464;11.964;2023-07-29T01:58:10;25.70;63.10
46932;DHT22;32670;51.464;11.964;2023-07-29T02:00:36;25.70;63.00
46932;DHT22;32670;51.464;11.964;2023-07-29T02:03:01;25.70;62.90
46932;DHT22;32670;51.464;11.964;2023-07-29T02:05:27;25.70;62.90
46932;DHT22;32670;51.464;11.964;2023-07-29T02:07:52;25.70;62.90
46932;DHT22;32670;51.464;11.964;2023-07-29T02:10:18;25.80;63.10
46932;DHT22;32670;51.464;11.964;2023-07-29T02:12:43;25.80;63.10
46932;DHT22;32670;51.464;11.964;2023-07-29T02:15:09;25.80;63.20
46932;DHT22;32670;51.464;11.964;2023-07-29T02:17:35;25.80;63.20
46932;DHT22;32670;51.464;11.964;2023-07-29T02:20:01;25.70;63.10
46932;DHT22;32670;51.464;11.964;2023-07-29T02:22:28;25.80;63.10
46932;DHT22;32670;51.464;11.964;2023-07-29T02:24:54;25.80;63.10
46932;DHT22;32670;51.464;11.964;2023-07-29T02:27:20;25.80;63.00
46932;DHT22;32670;51.464;11.964;2023-07-29T02:29:45;25.70;63.60
46932;DHT22;32670;51.464;11.964;2023-07-29T02:32:10;25.70;63.00
46932;DHT22;32670;51.464;11.964;2023-07-29T02:34:36;25.70;63.00
46932;DHT22;32670;51.464;11.964;2023-07-29T02:37:01;25.80;63.00
46932;DHT22;32670;51.464;11.964;2023-07-29T02:39:27;25.70;63.00
46932;DHT22;32670;51.464;11.964;2023-07-29T02:41:52;25.80;63.00
46932;DHT22;32670;51.464;11.964;2023-07-29T02:44:18;25.70;62.90
46932;DHT22;32670;51.464;11.964;2023-07-29T02:46:45;25.70;62.90
46932;DHT22;32670;51.464;11.964;2023-07-29T02:49:10;25.70;63.00
46932;DHT22;32670;51.464;11.964;2023-07-29T02:51:36;25.70;63.00
46932;DHT22;32670;51.464;11.964;2023-07-29T02:54:02;25.70;63.00
46932;DHT22;32670;51.464;11.964;2023-07-29T02:56:28;25.70;62.90
46932;DHT22;32670;51.464;11.964;2023-07-29T02:58:53;25.80;63.00
46932;DHT22;32670;51.464;11.964;2023-07-29T03:01:19;25.70;62.90
46932;DHT22;32670;51.464;11.964;2023-07-29T03:03:45;25.80;63.00
46932;DHT22;32670;51.464;11.964;2023-07-29T03:06:14;25.70;62.90
46932;DHT22;32670;51.464;11.964;2023-07-29T03:08:41;25.80;62.90
46932;DHT22;32670;51.464;11.964;2023-07-29T03:11:08;25.70;62.80
46932;DHT22;32670;51.464;11.964;2023-07-29T03:13:33;25.70;62.90
46932;DHT22;32670;51.464;11.964;2023-07-29T03:16:10;25.70;62.90
46932;DHT22;32670;51.464;11.964;2023-07-29T03:18:36;25.70;62.90
46932;DHT22;32670;51.464;11.964;2023-07-29T03:21:02;25.70;62.90
46932;DHT22;32670;51.464;11.964;2023-07-29T03:23:29;25.70;62.90
46932;DHT22;32670;51.464;11.964;2023-07-29T03:25:59;25.70;62.90
46932;DHT22;32670;51.464;11.964;2023-07-29T03:28:29;25.70;63.50
46932;DHT22;32670;51.464;11.964;2023-07-29T03:30:55;25.70;62.90
46932;DHT22;32670;51.464;11.964;2023-07-29T03:33:21;25.70;62.90
46932;DHT22;32670;51.464;11.964;2023-07-29T03:35:47;25.70;62.90
46932;DHT22;32670;51.464;11.964;2023-07-29T03:38:13;25.70;62.90
46932;DHT22;32670;51.464;11.964;2023-07-29T03:40:39;25.70;62.90
46932;DHT22;32670;51.464;11.964;2023-07-29T03:43:04;25.70;63.00
46932;DHT22;32670;51.464;11.964;2023-07-29T03:45:30;25.70;62.90
46932;DHT22;32670;51.464;11.964;2023-07-29T03:47:56;25.70;62.90
46932;DHT22;32670;51.464;11.964;2023-07-29T03:50:21;25.70;62.90
46932;DHT22;32670;51.464;11.964;2023-07-29T03:52:47;25.70;62.90
46932;DHT22;32670;51.464;11.964;2023-07-29T03:55:12;25.70;62.90
46932;DHT22;32670;51.464;11.964;2023-07-29T03:57:38;25.70;62.90
46932;DHT22;32670;51.464;11.964;2023-07-29T04:00:04;25.70;62.90
46932;DHT22;32670;51.464;11.964;2023-07-29T04:02:30;25.70;63.00
46932;DHT22;32670;51.464;11.964;2023-07-29T04:04:55;25.70;62.90
46932;DHT22;32670;51.464;11.964;2023-07-29T04:07:21;25.70;62.90
46932;DHT22;32670;51.464;11.964;2023-07-29T04:09:46;25.70;62.80
46932;DHT22;32670;51.464;11.964;2023-07-29T04:12:12;25.70;62.90
46932;DHT22;32670;51.464;11.964;2023-07-29T04:14:38;25.70;63.00
46932;DHT22;32670;51.464;11.964;2023-07-29T04:17:03;25.70;63.00
46932;DHT22;32670;51.464;11.964;2023-07-29T04:19:29;25.70;63.00
46932;DHT22;32670;51.464;11.964;2023-07-29T04:21:54;25.70;63.00
46932;DHT22;32670;51.464;11.964;2023-07-29T04:24:20;25.70;62.90
46932;DHT22;32670;51.464;11.964;2023-07-29T04:26:48;25.70;63.00
46932;DHT22;32670;51.464;11.964;2023-07-29T04:29:14;25.70;63.10
46932;DHT22;32670;51.464;11.964;2023-07-29T04:31:39;25.70;63.10
46932;DHT22;32670;51.464;11.964;2023-07-29T04:34:05;25.60;63.10
46932;DHT22;32670;51.464;11.964;2023-07-29T04:36:30;25.60;63.00
46932;DHT22;32670;51.464;11.964;2023-07-29T04:38:56;25.70;63.00
46932;DHT22;32670;51.464;11.964;2023-07-29T04:41:21;25.60;62.90
46932;DHT22;32670;51.464;11.964;2023-07-29T04:43:47;25.70;63.00
46932;DHT22;32670;51.464;11.964;2023-07-29T04:46:12;25.70;62.90
46932;DHT22;32670;51.464;11.964;2023-07-29T04:48:38;25.70;63.00
46932;DHT22;32670;51.464;11.964;2023-07-29T04:51:03;25.60;62.90
46932;DHT22;32670;51.464;11.964;2023-07-29T04:53:29;25.70;62.90
46932;DHT22;32670;51.464;11.964;2023-07-29T04:55:54;25.60;62.80
46932;DHT22;32670;51.464;11.964;2023-07-29T04:58:20;25.60;62.80
46932;DHT22;32670;51.464;11.964;2023-07-29T05:00:47;25.70;63.00
46932;DHT22;32670;51.464;11.964;2023-07-29T05:03:12;25.70;62.90
46932;DHT22;32670;51.464;11.964;2023-07-29T05:05:38;25.60;62.90
46932;DHT22;32670;51.464;11.964;2023-07-29T05:08:03;25.60;62.90
46932;DHT22;32670;51.464;11.964;2023-07-29T05:10:29;25.60;62.90
46932;DHT22;32670;51.464;11.964;2023-07-29T05:12:54;25.70;63.00
46932;DHT22;32670;51.464;11.964;2023-07-29T05:15:20;25.70;63.50
46932;DHT22;32670;51.464;11.964;2023-07-29T05:17:45;25.70;63.10
46932;DHT22;32670;51.464;11.964;2023-07-29T05:20:11;25.70;62.90
46932;DHT22;32670;51.464;11.964;2023-07-29T05:22:37;25.70;62.60
46932;DHT22;32670;51.464;11.964;2023-07-29T05:25:02;25.60;62.50
46932;DHT22;32670;51.464;11.964;2023-07-29T05:27:28;25.60;62.60
46932;DHT22;32670;51.464;11.964;2023-07-29T05:29:54;25.60;62.80
46932;DHT22;32670;51.464;11.964;2023-07-29T05:32:19;25.60;62.70
46932;DHT22;32670;51.464;11.964;2023-07-29T05:34:45;25.50;62.60
46932;DHT22;32670;51.464;11.964;2023-07-29T05:37:10;25.50;62.60
46932;DHT22;32670;51.464;11.964;2023-07-29T05:39:36;25.50;62.60
46932;DHT22;32670;51.464;11.964;2023-07-29T05:42:02;25.50;62.70
46932;DHT22;32670;51.464;11.964;2023-07-29T05:44:28;25.50;62.70
46932;DHT22;32670;51.464;11.964;2023-07-29T05:46:55;25.50;62.80
46932;DHT22;32670;51.464;11.964;2023-07-29T05:49:21;25.50;62.80
46932;DHT22;32670;51.464;11.964;2023-07-29T05:51:46;25.50;62.80
46932;DHT22;32670;51.464;11.964;2023-07-29T05:54:12;25.50;62.80
46932;DHT22;32670;51.464;11.964;2023-07-29T05:56:37;25.50;62.80
46932;DHT22;32670;51.464;11.964;2023-07-29T05:59:03;25.50;62.70
46932;DHT22;32670;51.464;11.964;2023-07-29T06:01:28;25.50;63.00
46932;DHT22;32670;51.464;11.964;2023-07-29T06:03:54;25.40;63.10
46932;DHT22;32670;51.464;11.964;2023-07-29T06:06:19;25.40;63.00
46932;DHT22;32670;51.464;11.964;2023-07-29T06:08:44;25.50;63.00
46932;DHT22;32670;51.464;11.964;2023-07-29T06:11:10;25.50;63.00
46932;DHT22;32670;51.464;11.964;2023-07-29T06:13:35;25.40;63.00
46932;DHT22;32670;51.464;11.964;2023-07-29T06:16:01;25.50;63.00
46932;DHT22;32670;51.464;11.964;2023-07-29T06:18:26;25.50;63.00
46932;DHT22;32670;51.464;11.964;2023-07-29T06:20:52;25.40;62.80
46932;DHT22;32670;51.464;11.964;2023-07-29T06:23:17;25.50;62.80
46932;DHT22;32670;51.464;11.964;2023-07-29T06:25:43;25.40;63.10
46932;DHT22;32670;51.464;11.964;2023-07-29T06:28:09;25.50;63.10
46932;DHT22;32670;51.464;11.964;2023-07-29T06:30:35;25.50;62.70
46932;DHT22;32670;51.464;11.964;2023-07-29T06:33:00;25.50;62.50
46932;DHT22;32670;51.464;11.964;2023-07-29T06:35:26;25.60;62.40
46932;DHT22;32670;51.464;11.964;2023-07-29T06:37:51;25.60;62.20
46932;DHT22;32670;51.464;11.964;2023-07-29T06:40:17;25.60;61.70
46932;DHT22;32670;51.464;11.964;2023-07-29T06:42:42;25.70;61.70
46932;DHT22;32670;51.464;11.964;2023-07-29T06:45:08;25.60;61.60
46932;DHT22;32670;51.464;11.964;2023-07-29T06:47:34;25.70;61.70
46932;DHT22;32670;51.464;11.964;2023-07-29T06:49:59;25.60;61.50
46932;DHT22;32670;51.464;11.964;2023-07-29T06:52:25;25.70;61.40
46932;DHT22;32670;51.464;11.964;2023-07-29T06:54:50;25.70;61.40
46932;DHT22;32670;51.464;11.964;2023-07-29T06:57:16;25.70;61.30
46932;DHT22;32670;51.464;11.964;2023-07-29T06:59:41;25.70;61.30
46932;DHT22;32670;51.464;11.964;2023-07-29T07:02:07;25.70;61.30
46932;DHT22;32670;51.464;11.964;2023-07-29T07:04:32;25.70;61.20
46932;DHT22;32670;51.464;11.964;2023-07-29T07:06:58;25.70;61.10
46932;DHT22;32670;51.464;11.964;2023-07-29T07:09:23;25.70;61.10
46932;DHT22;32670;51.464;11.964;2023-07-29T07:11:49;25.70;61.00
46932;DHT22;32670;51.464;11.964;2023-07-29T07:14:14;25.70;61.00
46932;DHT22;32670;51.464;11.964;2023-07-29T07:16:40;25.70;60.90
46932;DHT22;32670;51.464;11.964;2023-07-29T07:19:05;25.70;60.90
46932;DHT22;32670;51.464;11.964;2023-07-29T07:21:31;25.70;60.80
46932;DHT22;32670;51.464;11.964;2023-07-29T07:23:58;25.70;60.80
46932;DHT22;32670;51.464;11.964;2023-07-29T07:26:23;25.80;60.80
46932;DHT22;32670;51.464;11.964;2023-07-29T07:28:49;25.70;60.60
46932;DHT22;32670;51.464;11.964;2023-07-29T07:31:14;25.80;60.70
46932;DHT22;32670;51.464;11.964;2023-07-29T07:33:41;25.80;60.70
46932;DHT22;32670;51.464;11.964;2023-07-29T07:36:07;25.70;60.60
46932;DHT22;32670;51.464;11.964;2023-07-29T07:38:32;25.70;60.60
46932;DHT22;32670;51.464;11.964;2023-07-29T07:40:58;25.70;60.60
46932;DHT22;32670;51.464;11.964;2023-07-29T07:43:24;25.70;60.50
46932;DHT22;32670;51.464;11.964;2023-07-29T07:45:49;25.80;60.80
46932;DHT22;32670;51.464;11.964;2023-07-29T07:48:15;25.70;60.50
46932;DHT22;32670;51.464;11.964;2023-07-29T07:50:42;25.70;60.40
46932;DHT22;32670;51.464;11.964;2023-07-29T07:53:07;25.70;60.50
46932;DHT22;32670;51.464;11.964;2023-07-29T07:55:33;25.70;60.40
46932;DHT22;32670;51.464;11.964;2023-07-29T07:57:58;25.80;60.60
46932;DHT22;32670;51.464;11.964;2023-07-29T08:00:24;25.80;60.50
46932;DHT22;32670;51.464;11.964;2023-07-29T08:02:49;25.80;60.40
46932;DHT22;32670;51.464;11.964;2023-07-29T08:05:15;25.70;60.40
46932;DHT22;32670;51.464;11.964;2023-07-29T08:07:40;25.80;60.50
46932;DHT22;32670;51.464;11.964;2023-07-29T08:10:06;25.70;60.40
46932;DHT22;32670;51.464;11.964;2023-07-29T08:12:32;25.70;60.30
46932;DHT22;32670;51.464;11.964;2023-07-29T08:14:57;25.80;60.20
46932;DHT22;32670;51.464;11.964;2023-07-29T08:17:23;25.70;60.10
46932;DHT22;32670;51.464;11.964;2023-07-29T08:19:49;25.70;60.10
46932;DHT22;32670;51.464;11.964;2023-07-29T08:22:14;25.80;60.20
46932;DHT22;32670;51.464;11.964;2023-07-29T08:24:42;25.80;60.60
46932;DHT22;32670;51.464;11.964;2023-07-29T08:27:07;25.70;60.60
46932;DHT22;32670;51.464;11.964;2023-07-29T08:29:33;25.80;60.60
46932;DHT22;32670;51.464;11.964;2023-07-29T08:31:58;25.80;60.80
46932;DHT22;32670;51.464;11.964;2023-07-29T08:34:24;25.80;60.70
46932;DHT22;32670;51.464;11.964;2023-07-29T08:36:49;25.80;60.60
46932;DHT22;32670;51.464;11.964;2023-07-29T08:39:15;25.80;60.50
46932;DHT22;32670;51.464;11.964;2023-07-29T08:41:48;25.80;60.50
46932;DHT22;32670;51.464;11.964;2023-07-29T08:44:22;25.80;60.40
46932;DHT22;32670;51.464;11.964;2023-07-29T08:46:49;25.80;60.30
46932;DHT22;32670;51.464;11.964;2023-07-29T08:49:15;25.80;60.30
46932;DHT22;32670;51.464;11.964;2023-07-29T08:51:45;25.80;60.20
46932;DHT22;32670;51.464;11.964;2023-07-29T08:54:11;25.80;60.20
46932;DHT22;32670;51.464;11.964;2023-07-29T08:56:37;25.80;60.20
46932;DHT22;32670;51.464;11.964;2023-07-29T08:59:03;25.80;60.20
46932;DHT22;32670;51.464;11.964;2023-07-29T09:01:30;25.80;60.70
46932;DHT22;32670;51.464;11.964;2023-07-29T09:03:56;25.80;60.00
46932;DHT22;32670;51.464;11.964;2023-07-29T09:06:23;25.80;60.10
46932;DHT22;32670;51.464;11.964;2023-07-29T09:08:51;25.80;60.10
46932;DHT22;32670;51.464;11.964;2023-07-29T09:11:18;25.80;60.00
46932;DHT22;32670;51.464;11.964;2023-07-29T09:13:44;25.80;60.00
46932;DHT22;32670;51.464;11.964;2023-07-29T09:16:10;25.80;60.00
46932;DHT22;32670;51.464;11.964;2023-07-29T09:18:35;25.80;59.90
46932;DHT22;32670;51.464;11.964;2023-07-29T09:21:01;25.80;59.90
46932;DHT22;32670;51.464;11.964;2023-07-29T09:23:27;25.80;59.80
46932;DHT22;32670;51.464;11.964;2023-07-29T09:26:01;25.80;59.80
46932;DHT22;32670;51.464;11.964;2023-07-29T09:28:26;25.80;59.80
46932;DHT22;32670;51.464;11.964;2023-07-29T09:30:57;25.80;59.80
46932;DHT22;32670;51.464;11.964;2023-07-29T09:33:25;25.80;59.80
46932;DHT22;32670;51.464;11.964;2023-07-29T09:35:51;25.80;59.80
46932;DHT22;32670;51.464;11.964;2023-07-29T09:38:16;25.80;59.70
46932;DHT22;32670;51.464;11.964;2023-07-29T09:40:42;25.80;59.80
46932;DHT22;32670;51.464;11.964;2023-07-29T09:43:09;25.80;59.70
46932;DHT22;32670;51.464;11.964;2023-07-29T09:45:36;25.80;59.70
46932;DHT22;32670;51.464;11.964;2023-07-29T09:48:02;25.80;59.80
46932;DHT22;32670;51.464;11.964;2023-07-29T09:50:28;25.80;59.70
46932;DHT22;32670;51.464;11.964;2023-07-29T09:52:55;25.80;59.70
46932;DHT22;32670;51.464;11.964;2023-07-29T09:55:22;25.80;59.70
46932;DHT22;32670;51.464;11.964;2023-07-29T09:57:56;25.80;59.80
46932;DHT22;32670;51.464;11.964;2023-07-29T10:00:23;25.80;59.70
46932;DHT22;32670;51.464;11.964;2023-07-29T10:02:48;25.80;59.70
46932;DHT22;32670;51.464;11.964;2023-07-29T10:05:14;25.80;59.70
46932;DHT22;32670;51.464;11.964;2023-07-29T10:07:40;25.80;59.70
46932;DHT22;32670;51.464;11.964;2023-07-29T10:10:07;25.80;59.60
46932;DHT22;32670;51.464;11.964;2023-07-29T10:12:34;25.80;59.60
46932;DHT22;32670;51.464;11.964;2023-07-29T10:15:03;25.80;59.60
46932;DHT22;32670;51.464;11.964;2023-07-29T10:17:30;25.80;59.50
46932;DHT22;32670;51.464;11.964;2023-07-29T10:19:56;25.80;59.60
46932;DHT22;32670;51.464;11.964;2023-07-29T10:22:28;25.80;59.60
46932;DHT22;32670;51.464;11.964;2023-07-29T10:24:56;25.80;59.60
46932;DHT22;32670;51.464;11.964;2023-07-29T10:27:24;25.80;59.50
46932;DHT22;32670;51.464;11.964;2023-07-29T10:29:50;25.80;59.50
46932;DHT22;32670;51.464;11.964;2023-07-29T10:32:18;25.80;59.50
46932;DHT22;32670;51.464;11.964;2023-07-29T10:34:46;25.80;59.60
46932;DHT22;32670;51.464;11.964;2023-07-29T10:37:11;25.80;59.50
46932;DHT22;32670;51.464;11.964;2023-07-29T10:39:39;25.80;59.50
46932;DHT22;32670;51.464;11.964;2023-07-29T10:42:06;25.90;59.50
46932;DHT22;32670;51.464;11.964;2023-07-29T10:47:20;25.90;59.50
46932;DHT22;32670;51.464;11.964;2023-07-29T10:49:48;25.80;59.40
46932;DHT22;32670;51.464;11.964;2023-07-29T10:52:15;25.90;59.50
46932;DHT22;32670;51.464;11.964;2023-07-29T10:54:46;25.80;59.40
46932;DHT22;32670;51.464;11.964;2023-07-29T10:57:16;25.90;59.50
46932;DHT22;32670;51.464;11.964;2023-07-29T10:59:55;25.80;59.40
46932;DHT22;32670;51.464;11.964;2023-07-29T11:02:37;25.80;59.40
46932;DHT22;32670;51.464;11.964;2023-07-29T11:05:07;25.80;59.40
46932;DHT22;32670;51.464;11.964;2023-07-29T11:07:43;25.80;59.40
46932;DHT22;32670;51.464;11.964;2023-07-29T11:10:09;25.80;59.40
46932;DHT22;32670;51.464;11.964;2023-07-29T11:12:53;25.90;59.40
46932;DHT22;32670;51.464;11.964;2023-07-29T11:15:25;25.90;59.30
46932;DHT22;32670;51.464;11.964;2023-07-29T11:17:51;25.80;59.30
46932;DHT22;32670;51.464;11.964;2023-07-29T11:20:19;25.80;59.30
46932;DHT22;32670;51.464;11.964;2023-07-29T11:22:45;25.90;59.30
46932;DHT22;32670;51.464;11.964;2023-07-29T11:25:13;25.90;59.90
46932;DHT22;32670;51.464;11.964;2023-07-29T11:27:39;25.80;59.20
46932;DHT22;32670;51.464;11.964;2023-07-29T11:30:06;25.80;59.20
46932;DHT22;32670;51.464;11.964;2023-07-29T11:32:34;25.80;59.20
46932;DHT22;32670;51.464;11.964;2023-07-29T11:35:04;25.90;59.30
46932;DHT22;32670;51.464;11.964;2023-07-29T11:37:30;25.90;59.20
46932;DHT22;32670;51.464;11.964;2023-07-29T11:39:55;25.90;59.20
46932;DHT22;32670;51.464;11.964;2023-07-29T11:42:21;25.90;59.20
46932;DHT22;32670;51.464;11.964;2023-07-29T11:44:46;25.90;59.20
46932;DHT22;32670;51.464;11.964;2023-07-29T11:47:12;25.90;59.20
46932;DHT22;32670;51.464;11.964;2023-07-29T11:49:39;25.80;59.20
46932;DHT22;32670;51.464;11.964;2023-07-29T11:52:09;25.90;59.20
46932;DHT22;32670;51.464;11.964;2023-07-29T11:54:39;25.80;59.10
46932;DHT22;32670;51.464;11.964;2023-07-29T11:57:08;25.90;59.20
46932;DHT22;32670;51.464;11.964;2023-07-29T11:59:34;25.90;59.20
46932;DHT22;32670;51.464;11.964;2023-07-29T12:02:01;25.90;59.20
46932;DHT22;32670;51.464;11.964;2023-07-29T12:04:30;25.90;59.20
46932;DHT22;32670;51.464;11.964;2023-07-29T12:06:56;25.80;59.10
46932;DHT22;32670;51.464;11.964;2023-07-29T12:09:22;25.90;59.40
46932;DHT22;32670;51.464;11.964;2023-07-29T12:11:47;25.90;59.40
46932;DHT22;32670;51.464;11.964;2023-07-29T12:14:13;25.80;59.20
46932;DHT22;32670;51.464;11.964;2023-07-29T12:16:47;25.90;59.30
46932;DHT22;32670;51.464;11.964;2023-07-29T12:19:13;25.90;59.20
46932;DHT22;32670;51.464;11.964;2023-07-29T12:21:43;25.90;59.20
46932;DHT22;32670;51.464;11.964;2023-07-29T12:24:08;25.90;59.20
46932;DHT22;32670;51.464;11.964;2023-07-29T12:26:36;25.90;59.20
46932;DHT22;32670;51.464;11.964;2023-07-29T12:29:12;25.90;59.10
46932;DHT22;32670;51.464;11.964;2023-07-29T12:31:38;25.90;59.10
46932;DHT22;32670;51.464;11.964;2023-07-29T12:34:03;25.90;59.10
46932;DHT22;32670;51.464;11.964;2023-07-29T12:36:46;25.90;59.10
46932;DHT22;32670;51.464;11.964;2023-07-29T12:41:47;25.90;59.10
46932;DHT22;32670;51.464;11.964;2023-07-29T12:44:12;25.90;59.20
46932;DHT22;32670;51.464;11.964;2023-07-29T12:46:38;25.90;59.10
46932;DHT22;32670;51.464;11.964;2023-07-29T12:49:03;25.90;59.10
46932;DHT22;32670;51.464;11.964;2023-07-29T12:51:29;25.90;59.10
46932;DHT22;32670;51.464;11.964;2023-07-29T12:53:54;25.90;59.00
46932;DHT22;32670;51.464;11.964;2023-07-29T12:56:20;25.90;59.00
46932;DHT22;32670;51.464;11.964;2023-07-29T12:58:45;25.90;59.00
46932;DHT22;32670;51.464;11.964;2023-07-29T13:01:11;25.90;59.00
46932;DHT22;32670;51.464;11.964;2023-07-29T13:03:43;25.90;58.90
46932;DHT22;32670;51.464;11.964;2023-07-29T13:06:08;25.90;59.00
46932;DHT22;32670;51.464;11.964;2023-07-29T13:08:34;25.90;58.90
46932;DHT22;32670;51.464;11.964;2023-07-29T13:10:59;25.90;58.90
46932;DHT22;32670;51.464;11.964;2023-07-29T13:13:25;25.90;58.90
46932;DHT22;32670;51.464;11.964;2023-07-29T13:15:50;25.90;58.90
46932;DHT22;32670;51.464;11.964;2023-07-29T13:18:16;25.90;58.80
46932;DHT22;32670;51.464;11.964;2023-07-29T13:20:42;26.00;58.90
46932;DHT22;32670;51.464;11.964;2023-07-29T13:23:07;25.90;58.80
46932;DHT22;32670;51.464;11.964;2023-07-29T13:25:32;26.00;58.90
46932;DHT22;32670;51.464;11.964;2023-07-29T13:27:58;26.00;58.90
46932;DHT22;32670;51.464;11.964;2023-07-29T13:30:23;26.00;58.90
46932;DHT22;32670;51.464;11.964;2023-07-29T13:32:49;26.00;58.80
46932;DHT22;32670;51.464;11.964;2023-07-29T13:35:14;26.00;58.80
46932;DHT22;32670;51.464;11.964;2023-07-29T13:37:40;26.00;58.80
46932;DHT22;32670;51.464;11.964;2023-07-29T13:40:06;25.90;58.70
46932;DHT22;32670;51.464;11.964;2023-07-29T13:42:31;25.90;59.10
46932;DHT22;32670;51.464;11.964;2023-07-29T13:44:57;26.00;59.30
46932;DHT22;32670;51.464;11.964;2023-07-29T13:47:22;25.90;59.70
46932;DHT22;32670;51.464;11.964;2023-07-29T13:49:48;25.90;59.10
46932;DHT22;32670;51.464;11.964;2023-07-29T13:52:14;25.90;59.00
46932;DHT22;32670;51.464;11.964;2023-07-29T13:54:39;25.90;59.00
46932;DHT22;32670;51.464;11.964;2023-07-29T13:57:05;26.00;59.00
46932;DHT22;32670;51.464;11.964;2023-07-29T13:59:32;25.90;59.00
46932;DHT22;32670;51.464;11.964;2023-07-29T14:01:57;26.00;58.90
46932;DHT22;32670;51.464;11.964;2023-07-29T14:04:23;26.00;58.90
46932;DHT22;32670;51.464;11.964;2023-07-29T14:06:48;26.00;58.90
46932;DHT22;32670;51.464;11.964;2023-07-29T14:09:14;26.00;58.90
46932;DHT22;32670;51.464;11.964;2023-07-29T14:11:39;25.90;58.80
46932;DHT22;32670;51.464;11.964;2023-07-29T14:14:05;25.90;58.80
46932;DHT22;32670;51.464;11.964;2023-07-29T14:16:30;26.00;58.80
46932;DHT22;32670;51.464;11.964;2023-07-29T14:18:56;25.90;58.80
46932;DHT22;32670;51.464;11.964;2023-07-29T14:21:21;26.00;58.80
46932;DHT22;32670;51.464;11.964;2023-07-29T14:23:47;26.00;58.80
46932;DHT22;32670;51.464;11.964;2023-07-29T14:26:12;26.00;58.80
46932;DHT22;32670;51.464;11.964;2023-07-29T14:28:38;25.90;58.60
46932;DHT22;32670;51.464;11.964;2023-07-29T14:31:03;25.90;58.70
46932;DHT22;32670;51.464;11.964;2023-07-29T14:33:29;25.90;59.00
46932;DHT22;32670;51.464;11.964;2023-07-29T14:35:54;25.80;59.10
46932;DHT22;32670;51.464;11.964;2023-07-29T14:38:20;25.80;59.30
46932;DHT22;32670;51.464;11.964;2023-07-29T14:40:48;25.90;59.50
46932;DHT22;32670;51.464;11.964;2023-07-29T14:43:13;25.90;59.50
46932;DHT22;32670;51.464;11.964;2023-07-29T14:45:39;25.80;59.40
46932;DHT22;32670;51.464;11.964;2023-07-29T14:48:04;25.80;59.70
46932;DHT22;32670;51.464;11.964;2023-07-29T14:50:30;25.80;59.50
46932;DHT22;32670;51.464;11.964;2023-07-29T14:52:55;25.80;60.00
46932;DHT22;32670;51.464;11.964;2023-07-29T14:55:21;25.80;59.40
46932;DHT22;32670;51.464;11.964;2023-07-29T14:57:46;25.80;59.10
46932;DHT22;32670;51.464;11.964;2023-07-29T15:00:12;25.80;58.90
46932;DHT22;32670;51.464;11.964;2023-07-29T15:02:38;25.80;58.90
46932;DHT22;32670;51.464;11.964;2023-07-29T15:05:05;25.80;58.80
46932;DHT22;32670;51.464;11.964;2023-07-29T15:07:30;25.80;58.80
46932;DHT22;32670;51.464;11.964;2023-07-29T15:09:56;25.80;58.80
46932;DHT22;32670;51.464;11.964;2023-07-29T15:12:21;25.80;58.80
46932;DHT22;32670;51.464;11.964;2023-07-29T15:14:47;25.80;58.90
46932;DHT22;32670;51.464;11.964;2023-07-29T15:17:13;25.80;59.00
46932;DHT22;32670;51.464;11.964;2023-07-29T15:19:38;25.80;58.80